Aérodrome :
LOGIN :

S'inscrire | Disclaimer

   EN    FR    IT 

 










Légende :    VFR   VFR Marginal   IFR   IFR Intensif   IFR Très Intensif
Visi : 
Plafond : 
>= 8 km
>= 3000ft
5 à 8 km
1000 à 3000 ft
1500m à 5 km
500 à 1000 ft
800 à 1500m
200 à 500 ft
< 800m
< 200 ft
Symboles :   Orages  Brouillard  Fortes neiges  Fortes précipitations  Vent > 20 kt
SIGMETs :   Divers  Orages  Givrage  Turbulence  Onde Orograph.  Cendres Volcan.







- Altitude de l'aérodrome : 7 ft
- Code IATA : XHE
- Voir les cartes d'approche


LFTH - Hyeres

DERNIER METAR :
  • 232130Z AUTO 02005KT 4100 BR NSC 07/07 Q1025 TEMPO 2000 BR

METARs EXPIRÉS :
  • 232100Z AUTO 03003KT 4100 BR NSC 07/06 Q1025 TEMPO 2000 BR
  • 232030Z AUTO VRB03KT 7000 NSC 08/07 Q1025 TEMPO 2000 BR
  • 232000Z AUTO 35003KT 5000 BR NSC 08/07 Q1025 NOSIG
  • 231930Z AUTO 01003KT 330V050 6000 NSC 09/07 Q1024 NOSIG
  • 231900Z AUTO VRB03KT 7000 NSC 09/08 Q1024 NOSIG

TAF TAF LFTH
Valide du 23 à 21h jusqu'au 24 à 21h UTC


232000Z 2321/2421 35007KT CAVOK
TEMPO 2321/2406 VRB03KT 4000 BR
PROB30
TEMPO 2321/2406 2000 BR SCT010
Pas de NOTAMs connus pour ce terrain.



MET'MAP, la Météo Aéronautique d'un coup d'oeil ! - Copyright ORBIFLY Décembre 2007 - Disclaimer

ORBIFLY MET'MAP TEAM :

Programmation & Développement : Alexandra Zaïnal
Conception & Développement : Baudouin d'Aumeries
Co-Programmation & Développement : Marc-Olivier Méhu
Soutien technique & logistique : Manuel Goepfert

Contact : metmap@orbifly.com




SOURCES & CREDITS :

   NOAA